This is the latest recevied weather packets stored in our database for station/object DK8HC-WX. If no packets are shown the sender has not sent any weather packets the latest 10 day(s).
| Time | Temp. | Humidity | Pressure | Rain* | Wind** | Luminosity | Snow |
|---|---|---|---|---|---|---|---|
| 1777396881 | 14.44° C | 37% | 1026.7 hPa | - | - | - | - |
| 1777396281 | 14.44° C | 37% | 1026.6 hPa | - | - | - | - |
| 1777395681 | 14.44° C | 36% | 1026.8 hPa | - | - | - | - |
| 1777395083 | 15° C | 36% | 1026.7 hPa | - | - | - | - |
| 1777394481 | 15° C | 34% | 1026.7 hPa | - | - | - | - |
| 1777393881 | 15.56° C | 33% | 1026.8 hPa | - | - | - | - |
| 1777393281 | 17.22° C | 31% | 1026.9 hPa | - | - | - | - |
| 1777392681 | 16.67° C | 30% | 1026.7 hPa | - | - | - | - |
| 1777392081 | 17.78° C | 30% | 1027 hPa | - | - | - | - |
| 1777391481 | 17.78° C | 29% | 1026.9 hPa | - | - | - | - |
| 1777390881 | 18.89° C | 28% | 1027 hPa | - | - | - | - |
| 1777390281 | 18.33° C | 29% | 1026.9 hPa | - | - | - | - |
| 1777389681 | 19.44° C | 29% | 1027.2 hPa | - | - | - | - |
| 1777389080 | 18.33° C | 29% | 1027 hPa | - | - | - | - |
| 1777387880 | 18.89° C | 28% | 1027.1 hPa | - | - | - | - |
| 1777387281 | 19.44° C | 28% | 1027.4 hPa | - | - | - | - |
| 1777386680 | 18.33° C | 28% | 1027.2 hPa | - | - | - | - |
| 1777386080 | 20° C | 27% | 1027.3 hPa | - | - | - | - |
| 1777385480 | 19.44° C | 28% | 1027.4 hPa | - | - | - | - |
| 1777384880 | 18.89° C | 27% | 1027.3 hPa | - | - | - | - |
| 1777384280 | 19.44° C | 29% | 1027.4 hPa | - | - | - | - |
| 1777383680 | 19.44° C | 29% | 1027.3 hPa | - | - | - | - |
| 1777383081 | 20° C | 30% | 1027.6 hPa | - | - | - | - |
| 1777382481 | 18.89° C | 30% | 1027.6 hPa | - | - | - | - |
| 1777381880 | 17.78° C | 31% | 1027.3 hPa | - | - | - | - |
* Rain since midnight (hover to see other rain measurements)
** Current wind speed in m/s (hover to see current wind gust speed)